Time;durP1;ratioP1;P1;durP2;ratioP2;P2;SDS_P1;SDS_P2;PMS_P1;PMS_P2;Temp;Humidity;BMP_temperature;BMP_pressure;BME280_temperature;BME280_humidity;BME280_pressure;Samples;Min_cycle;Max_cycle;Signal;HPM_P1;HPM_P2
2022/12/27 00:00:16;;;;;;;6.37;3.87;;;8.40;99.90;;;;;;5049396;28;20688;-63
2022/12/27 00:02:42;;;;;;;6.20;3.83;;;8.30;99.90;;;;;;5042724;28;20191;-68
2022/12/27 00:05:09;;;;;;;3.50;3.20;;;8.40;99.90;;;;;;5047040;28;20657;-64
2022/12/27 00:07:35;;;;;;;6.40;3.13;;;8.30;99.90;;;;;;5049658;28;20630;-64
2022/12/27 00:10:01;;;;;;;6.93;3.90;;;8.30;99.90;;;;;;5033564;28;20583;-64
2022/12/27 00:12:26;;;;;;;7.43;4.17;;;8.30;99.90;;;;;;5050121;28;20739;-64
2022/12/27 00:14:52;;;;;;;5.13;3.13;;;8.30;99.90;;;;;;5046936;28;20191;-64
2022/12/27 00:17:18;;;;;;;6.47;3.97;;;8.20;99.90;;;;;;5045763;28;20209;-64
2022/12/27 00:19:44;;;;;;;4.03;3.27;;;8.20;99.90;;;;;;5049445;28;20424;-69
2022/12/27 00:22:10;;;;;;;5.10;3.40;;;8.30;99.90;;;;;;5052020;28;20188;-63
2022/12/27 00:24:35;;;;;;;5.00;4.17;;;8.40;99.90;;;;;;5045601;28;20416;-64
2022/12/27 00:27:01;;;;;;;4.37;3.03;;;8.30;99.90;;;;;;5037970;28;20497;-64
2022/12/27 00:29:27;;;;;;;4.80;3.50;;;8.40;99.90;;;;;;5065725;28;20215;-64
2022/12/27 00:31:52;;;;;;;3.93;3.63;;;8.40;99.90;;;;;;5053011;28;20614;-64
2022/12/27 00:34:18;;;;;;;5.30;3.70;;;8.40;99.90;;;;;;5047253;28;20221;-64
2022/12/27 00:36:44;;;;;;;6.17;4.47;;;8.40;99.90;;;;;;5050040;28;20594;-69
2022/12/27 00:39:10;;;;;;;4.13;3.40;;;8.40;99.90;;;;;;5046886;28;20199;-64
2022/12/27 00:41:36;;;;;;;4.50;4.00;;;8.40;99.90;;;;;;5050558;28;20189;-64
2022/12/27 00:44:01;;;;;;;8.47;4.43;;;8.20;99.90;;;;;;5052753;28;20422;-64
2022/12/27 00:46:27;;;;;;;5.10;3.70;;;8.30;99.90;;;;;;5046837;28;20223;-64
2022/12/27 00:48:54;;;;;;;5.80;3.60;;;8.30;99.90;;;;;;5042948;28;20209;-64
2022/12/27 00:51:21;;;;;;;5.63;3.80;;;8.30;99.90;;;;;;5045257;28;20432;-69
2022/12/27 00:53:48;;;;;;;4.30;3.43;;;8.30;99.90;;;;;;5057618;28;20422;-64
2022/12/27 00:56:17;;;;;;;4.27;3.70;;;8.30;99.90;;;;;;5052774;28;20460;-64
2022/12/27 00:58:43;;;;;;;6.27;4.10;;;8.30;99.90;;;;;;5049986;28;20434;-69
2022/12/27 01:01:17;;;;;;;3.87;3.47;;;8.40;99.90;;;;;;5039703;28;20428;-64
2022/12/27 01:03:43;;;;;;;4.23;3.73;;;8.30;99.90;;;;;;5052923;28;20435;-68
2022/12/27 01:06:15;;;;;;;3.63;3.37;;;8.20;99.90;;;;;;5051264;28;20432;-64
2022/12/27 01:08:41;;;;;;;5.97;3.60;;;8.20;99.90;;;;;;5055277;28;20427;-64
2022/12/27 01:11:08;;;;;;;4.87;3.47;;;8.20;99.90;;;;;;5047757;28;20432;-69
2022/12/27 01:13:35;;;;;;;3.70;3.40;;;8.30;99.90;;;;;;5042276;28;20986;-64
2022/12/27 01:16:06;;;;;;;4.17;3.50;;;8.30;99.90;;;;;;5040966;28;20459;-63
2022/12/27 01:18:32;;;;;;;4.30;3.90;;;8.40;99.90;;;;;;5058165;28;20428;-64
2022/12/27 01:20:58;;;;;;;8.13;3.90;;;8.40;99.90;;;;;;5048914;28;20427;-64
2022/12/27 01:23:26;;;;;;;4.40;4.10;;;8.40;99.90;;;;;;5035878;28;20435;-64
2022/12/27 01:25:59;;;;;;;5.87;4.23;;;8.40;99.90;;;;;;5050563;28;20192;-64
2022/12/27 01:28:25;;;;;;;4.60;3.90;;;8.30;99.90;;;;;;5042586;28;20779;-63
2022/12/27 01:30:51;;;;;;;5.03;4.13;;;8.30;99.90;;;;;;5036575;28;20428;-63
2022/12/27 01:33:16;;;;;;;5.43;3.87;;;8.30;99.90;;;;;;5048668;28;20184;-64
2022/12/27 01:35:42;;;;;;;4.80;4.20;;;8.30;99.90;;;;;;5047202;28;20657;-64
2022/12/27 01:38:08;;;;;;;4.73;4.00;;;8.40;99.90;;;;;;5045076;28;20394;-64
2022/12/27 01:40:35;;;;;;;4.57;3.93;;;8.20;99.90;;;;;;5050356;28;20191;-68
2022/12/27 01:43:01;;;;;;;4.80;4.00;;;8.30;99.90;;;;;;5051794;28;20185;-69
2022/12/27 01:45:31;;;;;;;6.20;4.50;;;8.30;99.90;;;;;;5035974;28;20434;-64
2022/12/27 01:48:11;;;;;;;4.83;3.70;;;8.30;99.90;;;;;;5044999;28;20238;-64
2022/12/27 01:50:45;;;;;;;5.37;4.20;;;8.30;99.90;;;;;;5047024;28;21119;-67
2022/12/27 01:53:18;;;;;;;4.47;4.07;;;8.30;99.90;;;;;;5048726;28;20943;-65
2022/12/27 01:55:54;;;;;;;5.97;4.23;;;8.30;99.90;;;;;;5045546;28;20420;-63
2022/12/27 01:58:25;;;;;;;9.93;4.20;;;8.20;99.90;;;;;;5048911;28;20425;-64
2022/12/27 02:00:51;;;;;;;5.10;4.27;;;8.30;99.90;;;;;;5047693;28;20474;-64
2022/12/27 02:03:23;;;;;;;5.10;3.70;;;8.30;99.90;;;;;;5047338;28;20436;-64
2022/12/27 02:05:50;;;;;;;5.90;4.10;;;8.40;99.90;;;;;;5049226;28;20428;-69
2022/12/27 02:08:36;;;;;;;5.37;3.87;;;8.30;99.90;;;;;;5053590;28;20773;-64
2022/12/27 02:11:04;;;;;;;4.20;3.80;;;8.40;99.90;;;;;;5046280;28;20911;-64
2022/12/27 02:13:33;;;;;;;4.80;4.40;;;8.40;99.90;;;;;;5050974;28;20507;-64
2022/12/27 02:15:58;;;;;;;4.20;3.57;;;8.40;99.90;;;;;;5046194;28;20502;-64
2022/12/27 02:18:24;;;;;;;5.73;3.80;;;8.30;99.90;;;;;;5047539;28;20440;-64
2022/12/27 02:21:17;;;;;;;4.83;4.13;;;8.30;99.90;;;;;;5049398;28;20184;-69
2022/12/27 02:24:05;;;;;;;5.60;4.30;;;8.20;99.90;;;;;;5038365;28;20236;-64
2022/12/27 02:26:54;;;;;;;4.90;4.40;;;8.30;99.90;;;;;;5043079;28;20436;-64
2022/12/27 02:29:47;;;;;;;5.17;3.60;;;8.30;99.90;;;;;;5039940;28;20432;-65
2022/12/27 02:32:26;;;;;;;4.50;4.20;;;8.20;99.90;;;;;;5044404;28;20435;-64
2022/12/27 02:35:03;;;;;;;7.00;4.47;;;8.20;99.90;;;;;;5044007;28;20582;-69
2022/12/27 02:37:32;;;;;;;4.73;4.33;;;8.20;99.90;;;;;;5045517;28;20460;-67
2022/12/27 02:53:02;;;;;;;7.03;4.13;;;8.30;99.90;;;;;;5045675;28;20448;-64
2022/12/27 02:54:10;;;;;;;7.23;5.43;;;8.30;99.90;;;;;;5041135;28;20522;-66
2022/12/27 02:57:09;;;;;;;4.50;4.07;;;8.20;99.90;;;;;;5059035;28;20463;-64
2022/12/27 03:03:22;;;;;;;7.77;4.73;;;8.20;99.90;;;;;;5044094;28;20431;-64
2022/12/27 03:08:53;;;;;;;6.13;4.00;;;8.20;99.90;;;;;;5040864;28;20826;-70
2022/12/27 03:17:09;;;;;;;5.37;4.13;;;8.20;99.90;;;;;;5040832;28;20467;-64
2022/12/27 03:25:27;;;;;;;5.00;4.10;;;8.10;99.90;;;;;;5043749;28;20425;-65
2022/12/27 03:33:36;;;;;;;5.93;4.97;;;8.10;99.90;;;;;;5049615;28;20438;-64
2022/12/27 03:39:32;;;;;;;4.80;4.30;;;8.10;99.90;;;;;;5051496;28;20508;-64
2022/12/27 03:44:48;;;;;;;5.67;5.17;;;8.10;99.90;;;;;;5059706;28;20769;-63
2022/12/27 03:47:29;;;;;;;6.13;5.63;;;8.20;99.90;;;;;;5043973;28;21010;-63
2022/12/27 03:50:20;;;;;;;7.40;5.00;;;8.20;99.90;;;;;;5046972;28;20778;-69
2022/12/27 03:52:56;;;;;;;7.60;5.43;;;8.20;99.90;;;;;;5050728;28;20438;-63
2022/12/27 03:55:22;;;;;;;6.73;6.07;;;8.20;99.90;;;;;;5044825;28;20577;-63
2022/12/27 03:57:48;;;;;;;11.17;6.50;;;8.20;99.90;;;;;;5044444;28;20562;-64
2022/12/27 04:00:14;;;;;;;6.03;5.53;;;8.10;99.90;;;;;;5045728;28;20507;-64
2022/12/27 04:02:40;;;;;;;6.13;5.53;;;8.20;99.90;;;;;;5040732;28;20930;-64
2022/12/27 04:05:06;;;;;;;8.70;6.17;;;8.20;99.90;;;;;;5047310;28;20429;-65
2022/12/27 04:07:32;;;;;;;7.40;5.70;;;8.30;99.90;;;;;;5050897;28;20196;-64
2022/12/27 04:37:07;;;;;;;6.30;5.77;;;8.30;99.90;;;;;;5045497;28;20807;-64
2022/12/27 04:39:33;;;;;;;7.57;5.80;;;8.30;99.90;;;;;;5045603;28;20499;-64
2022/12/27 04:55:57;;;;;;;5.63;5.10;;;8.40;99.90;;;;;;5053460;28;20934;-65
2022/12/27 04:58:23;;;;;;;6.20;5.60;;;8.30;99.90;;;;;;5049830;28;20439;-64
2022/12/27 05:03:34;;;;;;;6.03;5.43;;;8.30;99.90;;;;;;5050415;28;20754;-63
2022/12/27 05:06:00;;;;;;;7.50;6.10;;;8.30;99.90;;;;;;5044553;28;20432;-69
2022/12/27 05:13:59;;;;;;;6.00;5.37;;;8.40;99.90;;;;;;5052559;28;20447;-64
2022/12/27 05:16:36;;;;;;;5.77;5.20;;;8.30;99.90;;;;;;5056278;28;20467;-64
2022/12/27 05:19:06;;;;;;;7.60;5.30;;;8.40;99.90;;;;;;5068726;28;20431;-64
2022/12/27 05:25:33;;;;;;;6.10;5.50;;;8.40;99.90;;;;;;5063220;28;20437;-64
2022/12/27 05:27:14;;;;;;;5.30;4.90;;;8.50;99.90;;;;;;5055003;28;20847;-64
2022/12/27 05:29:40;;;;;;;6.20;5.30;;;8.50;99.90;;;;;;5048622;28;20432;-65
2022/12/27 05:32:05;;;;;;;5.00;4.70;;;8.50;99.90;;;;;;5061734;28;20947;-64
2022/12/27 05:34:31;;;;;;;5.30;4.80;;;8.50;99.90;;;;;;5054772;28;20221;-64
2022/12/27 05:36:57;;;;;;;8.50;5.60;;;8.50;99.90;;;;;;5053511;28;20228;-64
2022/12/27 05:39:22;;;;;;;6.20;5.60;;;8.50;99.90;;;;;;5051268;28;20197;-64
2022/12/27 05:41:48;;;;;;;6.93;5.33;;;8.60;99.90;;;;;;5064301;28;20186;-64
2022/12/27 05:44:14;;;;;;;8.87;6.10;;;8.60;99.90;;;;;;5059662;28;20193;-64
2022/12/27 05:46:39;;;;;;;7.70;5.60;;;8.60;99.90;;;;;;5050951;28;20209;-64
2022/12/27 05:49:05;;;;;;;7.87;5.40;;;8.60;99.90;;;;;;5055003;28;20311;-65
2022/12/27 05:51:31;;;;;;;10.63;5.90;;;8.60;99.90;;;;;;5042488;28;20630;-63
2022/12/27 05:53:57;;;;;;;11.93;6.37;;;8.60;99.90;;;;;;5056110;28;20435;-64
2022/12/27 05:56:22;;;;;;;5.40;4.90;;;8.60;99.90;;;;;;5047651;28;20212;-64
2022/12/27 05:58:52;;;;;;;9.10;6.30;;;8.50;99.90;;;;;;5039649;28;20186;-64
2022/12/27 06:01:18;;;;;;;6.10;5.60;;;8.50;99.90;;;;;;5041834;28;20451;-64
2022/12/27 06:03:44;;;;;;;6.23;5.63;;;8.50;99.90;;;;;;5053061;28;20950;-64
2022/12/27 06:06:11;;;;;;;5.77;5.27;;;8.60;99.90;;;;;;5045813;28;20927;-64
2022/12/27 06:08:37;;;;;;;6.13;5.53;;;8.70;99.90;;;;;;5040415;28;20772;-65
2022/12/27 06:11:12;;;;;;;5.93;5.37;;;8.70;99.90;;;;;;5049587;28;20435;-69
2022/12/27 06:13:38;;;;;;;9.23;5.47;;;8.70;99.90;;;;;;5042016;28;20428;-64
2022/12/27 06:16:06;;;;;;;6.97;6.17;;;8.80;99.90;;;;;;5050695;28;20973;-68
2022/12/27 06:18:34;;;;;;;7.40;6.00;;;8.70;99.90;;;;;;5050363;28;20482;-65
2022/12/27 06:21:14;;;;;;;10.13;6.27;;;8.80;99.90;;;;;;5052109;28;20456;-64
2022/12/27 06:23:43;;;;;;;8.67;6.10;;;8.80;99.90;;;;;;5044938;28;20467;-64
2022/12/27 06:26:18;;;;;;;5.80;5.40;;;8.80;99.90;;;;;;5050266;28;20783;-64
2022/12/27 06:28:48;;;;;;;6.27;5.57;;;8.80;99.90;;;;;;5047634;28;20523;-64
2022/12/27 06:31:14;;;;;;;6.47;5.37;;;8.80;99.90;;;;;;5043587;28;20477;-64
2022/12/27 06:33:40;;;;;;;6.60;6.03;;;8.80;99.90;;;;;;5051537;28;20850;-64
2022/12/27 06:36:11;;;;;;;8.80;5.57;;;8.70;99.90;;;;;;5043735;28;20766;-70
2022/12/27 06:38:37;;;;;;;6.70;6.10;;;8.70;99.90;;;;;;5048715;28;20554;-65
2022/12/27 06:41:09;;;;;;;7.00;5.57;;;8.60;99.90;;;;;;5044514;28;20431;-70
2022/12/27 06:43:35;;;;;;;5.60;5.00;;;8.70;99.90;;;;;;5041786;28;20429;-64
2022/12/27 06:46:04;;;;;;;10.50;5.10;;;8.80;99.90;;;;;;5044853;28;20448;-64
2022/12/27 06:48:30;;;;;;;5.87;5.33;;;8.70;99.90;;;;;;5048445;28;20441;-63
2022/12/27 06:50:56;;;;;;;6.10;5.60;;;8.80;99.90;;;;;;5051385;28;20421;-64
2022/12/27 06:53:22;;;;;;;7.37;5.27;;;8.80;99.90;;;;;;5047278;28;20428;-64
2022/12/27 06:55:48;;;;;;;7.93;5.40;;;8.90;99.90;;;;;;5052501;28;20432;-64
2022/12/27 06:58:14;;;;;;;5.67;5.20;;;8.80;99.90;;;;;;5036844;28;20532;-64
2022/12/27 07:00:41;;;;;;;6.73;5.80;;;8.80;99.90;;;;;;5039843;28;20460;-64
2022/12/27 07:03:06;;;;;;;5.93;5.50;;;8.70;99.90;;;;;;5048082;28;20269;-69
2022/12/27 07:05:35;;;;;;;6.00;5.47;;;8.70;99.90;;;;;;5040578;28;20529;-66
2022/12/27 07:08:01;;;;;;;7.57;6.10;;;8.70;99.90;;;;;;5043915;28;20174;-63
2022/12/27 07:10:27;;;;;;;8.03;5.73;;;8.70;99.90;;;;;;5051395;28;20684;-63
2022/12/27 07:12:53;;;;;;;6.17;5.13;;;8.80;99.90;;;;;;5035988;28;20855;-64
2022/12/27 07:15:18;;;;;;;5.33;4.83;;;8.80;99.90;;;;;;5045121;28;20181;-65
2022/12/27 07:17:44;;;;;;;7.57;5.07;;;8.90;99.90;;;;;;5039446;28;20197;-63
2022/12/27 07:20:10;;;;;;;5.70;5.03;;;8.90;99.90;;;;;;5046571;28;20228;-64
2022/12/27 07:22:36;;;;;;;11.27;5.87;;;8.90;99.90;;;;;;5052530;28;20216;-68
2022/12/27 07:25:01;;;;;;;8.30;5.23;;;8.90;99.90;;;;;;5038279;28;20432;-65
2022/12/27 07:27:27;;;;;;;5.70;5.20;;;8.90;99.90;;;;;;5038363;28;20212;-64
2022/12/27 07:29:53;;;;;;;7.40;5.40;;;8.90;99.90;;;;;;5050032;28;20193;-63
2022/12/27 07:32:18;;;;;;;6.87;5.50;;;8.80;99.90;;;;;;5036145;28;20186;-63
2022/12/27 07:34:44;;;;;;;8.27;5.90;;;8.70;99.90;;;;;;5049281;28;20229;-63
2022/12/27 07:37:10;;;;;;;6.20;5.60;;;8.70;99.90;;;;;;5030775;28;20304;-64
2022/12/27 07:39:36;;;;;;;7.37;5.80;;;8.70;99.90;;;;;;5051197;28;20266;-63
2022/12/27 07:42:01;;;;;;;8.73;5.10;;;8.70;99.90;;;;;;5048175;28;20189;-63
2022/12/27 07:44:27;;;;;;;6.27;5.50;;;8.70;99.90;;;;;;5045733;28;21931;-63
2022/12/27 07:46:53;;;;;;;6.37;4.77;;;8.80;99.90;;;;;;5054271;28;20185;-64
2022/12/27 07:49:18;;;;;;;6.50;5.47;;;8.70;99.90;;;;;;5054463;28;20526;-63
2022/12/27 07:51:44;;;;;;;5.50;5.07;;;8.80;99.90;;;;;;5051419;28;20197;-63
2022/12/27 07:54:10;;;;;;;10.37;5.20;;;8.80;99.90;;;;;;5040809;28;20177;-70
2022/12/27 07:56:35;;;;;;;5.77;5.20;;;8.80;99.90;;;;;;5043807;28;20566;-63
2022/12/27 07:59:01;;;;;;;5.67;5.00;;;8.80;99.90;;;;;;5048827;28;20197;-63
2022/12/27 08:02:02;;;;;;;7.93;5.40;;;8.80;99.90;;;;;;5033799;28;20269;-64
2022/12/27 08:04:15;;;;;;;9.30;5.60;;;8.70;99.90;;;;;;5030649;28;20901;-63
2022/12/27 08:06:40;;;;;;;5.40;5.00;;;8.70;99.90;;;;;;5045326;28;20451;-63
2022/12/27 08:09:06;;;;;;;7.10;5.20;;;8.60;99.90;;;;;;5041334;28;20192;-63
2022/12/27 08:11:32;;;;;;;8.00;6.10;;;8.60;99.90;;;;;;5030321;28;20248;-63
2022/12/27 08:13:58;;;;;;;6.40;5.63;;;8.60;99.90;;;;;;5055900;28;20177;-63
2022/12/27 08:16:25;;;;;;;7.40;6.07;;;8.60;99.90;;;;;;5048876;28;20222;-63
2022/12/27 08:18:54;;;;;;;6.50;5.93;;;8.60;99.90;;;;;;5051029;28;20577;-63
2022/12/27 08:21:21;;;;;;;12.70;5.90;;;8.70;99.90;;;;;;5044565;28;20831;-63
2022/12/27 08:23:47;;;;;;;6.47;5.87;;;8.70;99.90;;;;;;5042238;28;20437;-63
2022/12/27 08:26:13;;;;;;;7.47;5.90;;;8.70;99.90;;;;;;5039198;28;20440;-64
2022/12/27 08:28:39;;;;;;;7.60;5.70;;;8.70;99.90;;;;;;5046534;28;20837;-63
2022/12/27 08:31:10;;;;;;;8.50;5.97;;;8.80;99.90;;;;;;5054529;28;20216;-63
2022/12/27 08:33:36;;;;;;;7.53;5.80;;;8.70;99.90;;;;;;5044146;28;20436;-66
2022/12/27 08:36:07;;;;;;;6.47;5.90;;;8.70;99.90;;;;;;5037751;28;20432;-63
2022/12/27 08:38:33;;;;;;;6.30;5.07;;;8.80;99.90;;;;;;5030639;28;20441;-64
2022/12/27 08:40:59;;;;;;;7.07;5.77;;;8.90;99.90;;;;;;5019020;28;20432;-68
2022/12/27 08:43:25;;;;;;;10.80;6.23;;;8.90;99.90;;;;;;5050359;28;20781;-63
2022/12/27 08:45:50;;;;;;;8.33;5.53;;;8.90;99.90;;;;;;5060920;28;20201;-63
2022/12/27 08:48:16;;;;;;;6.77;6.10;;;9.10;99.90;;;;;;5048644;28;20182;-63
2022/12/27 08:50:42;;;;;;;8.80;6.80;;;9.10;99.90;;;;;;5045884;28;20181;-63
2022/12/27 08:53:09;;;;;;;8.00;6.07;;;9.10;99.90;;;;;;5034769;28;20204;-64
2022/12/27 08:55:35;;;;;;;8.30;6.20;;;9.10;99.90;;;;;;5052213;28;20471;-63
2022/12/27 08:58:04;;;;;;;6.10;5.43;;;9.20;99.90;;;;;;5049833;28;20499;-63
2022/12/27 09:00:32;;;;;;;8.57;5.53;;;9.30;99.90;;;;;;5053532;28;20633;-63
2022/12/27 09:02:58;;;;;;;10.60;5.63;;;9.50;99.90;;;;;;5037489;28;20522;-63
2022/12/27 09:05:25;;;;;;;8.70;5.37;;;9.90;99.90;;;;;;5041132;28;20533;-63
2022/12/27 09:07:51;;;;;;;9.43;8.60;;;10.40;99.90;;;;;;5048564;28;20618;-65
2022/12/27 09:10:18;;;;;;;10.27;9.47;;;11.30;99.90;;;;;;5050587;28;20463;-69
2022/12/27 09:12:44;;;;;;;11.57;10.70;;;12.10;99.90;;;;;;5042383;28;20182;-69
2022/12/27 09:15:11;;;;;;;12.57;11.80;;;12.70;99.90;;;;;;5041431;28;20438;-66
2022/12/27 09:17:37;;;;;;;8.60;7.97;;;13.50;99.90;;;;;;5044652;28;20550;-65
2022/12/27 09:20:03;;;;;;;7.20;6.70;;;14.10;99.90;;;;;;5045450;28;20520;-66
2022/12/27 09:22:29;;;;;;;7.70;7.10;;;14.90;99.90;;;;;;5040754;28;20435;-65
2022/12/27 09:24:55;;;;;;;7.30;6.60;;;15.90;99.90;;;;;;5048558;28;20478;-66
2022/12/27 09:27:21;;;;;;;7.27;5.83;;;16.80;95.60;;;;;;5029204;28;20175;-65
2022/12/27 09:29:46;;;;;;;6.67;6.20;;;17.80;92.00;;;;;;5052090;28;20637;-66
2022/12/27 09:32:12;;;;;;;6.20;5.70;;;18.70;93.80;;;;;;5055854;28;20185;-71
2022/12/27 09:34:38;;;;;;;6.57;5.70;;;19.10;90.10;;;;;;5050802;28;20223;-66
2022/12/27 09:37:03;;;;;;;6.67;5.90;;;19.50;85.00;;;;;;5052532;28;20722;-66
2022/12/27 09:39:29;;;;;;;6.20;5.80;;;19.70;79.70;;;;;;5051206;28;20621;-66
2022/12/27 09:42:23;;;;;;;6.03;5.43;;;19.80;75.90;;;;;;5059513;28;20185;-66
2022/12/27 09:45:02;;;;;;;6.03;5.50;;;20.00;73.20;;;;;;5044750;28;20185;-66
2022/12/27 09:47:37;;;;;;;5.27;4.87;;;20.20;73.70;;;;;;5038447;28;20437;-66
2022/12/27 09:50:09;;;;;;;6.67;5.63;;;20.40;71.80;;;;;;5047709;28;20833;-66
2022/12/27 09:52:54;;;;;;;6.93;6.27;;;20.60;74.00;;;;;;5051691;28;20664;-66
2022/12/27 09:55:31;;;;;;;5.40;5.00;;;20.70;70.30;;;;;;5053107;28;20514;-66
2022/12/27 09:58:23;;;;;;;5.67;5.17;;;21.00;68.20;;;;;;5042301;28;20464;-67
2022/12/27 10:00:50;;;;;;;5.10;4.60;;;21.30;62.00;;;;;;5040796;28;20441;-66
2022/12/27 10:03:20;;;;;;;5.23;4.83;;;21.20;62.30;;;;;;5035809;28;20829;-72
2022/12/27 10:05:50;;;;;;;5.90;5.30;;;21.70;62.00;;;;;;5045441;28;20461;-69
2022/12/27 10:08:28;;;;;;;5.33;4.87;;;22.20;61.40;;;;;;5043058;28;20442;-71
2022/12/27 10:11:37;;;;;;;4.93;4.53;;;22.50;59.50;;;;;;5047789;28;20424;-66
2022/12/27 10:14:45;;;;;;;4.63;4.20;;;22.40;60.10;;;;;;5039244;28;20837;-66
2022/12/27 10:17:58;;;;;;;5.13;4.73;;;22.20;58.50;;;;;;5038998;28;20451;-64
2022/12/27 10:20:30;;;;;;;5.17;4.77;;;22.20;55.80;;;;;;5031123;28;20453;-67
2022/12/27 10:23:03;;;;;;;4.73;4.43;;;21.90;55.50;;;;;;5024540;28;20443;-64
2022/12/27 10:25:30;;;;;;;6.47;4.80;;;21.30;56.60;;;;;;5051833;28;20448;-68
2022/12/27 10:28:08;;;;;;;5.10;4.60;;;21.30;56.60;;;;;;5049963;28;20474;-68
2022/12/27 10:30:33;;;;;;;5.17;4.67;;;21.10;56.90;;;;;;5043535;28;20429;-69
2022/12/27 10:32:59;;;;;;;5.90;5.30;;;20.90;57.00;;;;;;5046700;28;20421;-68
2022/12/27 10:35:25;;;;;;;7.97;4.57;;;20.80;57.20;;;;;;5065159;28;20248;-74
2022/12/27 10:37:52;;;;;;;5.00;4.50;;;20.50;57.70;;;;;;5060031;28;20768;-65
2022/12/27 10:40:36;;;;;;;6.00;4.47;;;20.20;58.90;;;;;;5043831;28;22283;-72
2022/12/27 10:43:04;;;;;;;5.23;4.03;;;19.90;58.50;;;;;;5049581;28;20428;-65
2022/12/27 10:45:41;;;;;;;6.80;4.23;;;19.40;59.20;;;;;;5043042;28;20945;-71
2022/12/27 10:48:27;;;;;;;4.27;3.97;;;18.90;60.50;;;;;;5046658;28;20432;-68
2022/12/27 10:50:59;;;;;;;4.80;4.30;;;18.40;63.00;;;;;;5044298;28;20987;-66
2022/12/27 10:53:45;;;;;;;4.97;4.57;;;18.20;63.00;;;;;;5028413;28;20809;-64
2022/12/27 10:56:33;;;;;;;4.80;4.50;;;18.00;64.30;;;;;;5042936;28;20521;-64
2022/12/27 10:59:20;;;;;;;6.07;4.93;;;17.70;66.10;;;;;;5052267;28;20604;-64
2022/12/27 11:02:17;;;;;;;8.80;4.40;;;17.40;66.20;;;;;;5045172;28;20460;-64
2022/12/27 11:04:59;;;;;;;4.27;3.90;;;17.00;68.00;;;;;;5045322;28;20436;-64
2022/12/27 11:07:31;;;;;;;5.33;4.83;;;16.70;70.00;;;;;;5051029;28;20439;-64
2022/12/27 11:10:18;;;;;;;5.43;4.10;;;16.60;70.70;;;;;;5044162;28;20428;-64
2022/12/27 11:13:19;;;;;;;8.93;4.50;;;16.30;71.70;;;;;;5047473;28;20486;-66
2022/12/27 11:15:56;;;;;;;4.83;4.53;;;16.00;74.50;;;;;;5045695;28;20943;-65
2022/12/27 11:18:22;;;;;;;5.27;4.47;;;15.80;74.60;;;;;;5040077;28;20474;-71
2022/12/27 11:20:54;;;;;;;5.60;4.43;;;15.80;75.30;;;;;;5051183;28;20435;-63
2022/12/27 11:23:23;;;;;;;4.50;4.20;;;15.80;76.10;;;;;;5063777;28;20426;-70
2022/12/27 11:25:52;;;;;;;4.77;4.37;;;15.80;77.10;;;;;;5046552;28;20428;-63
2022/12/27 11:28:38;;;;;;;4.63;4.33;;;15.80;77.70;;;;;;5048674;28;20488;-64
2022/12/27 11:31:10;;;;;;;5.60;4.73;;;15.80;77.40;;;;;;5050275;28;20476;-63
2022/12/27 11:33:40;;;;;;;5.33;4.70;;;15.80;76.80;;;;;;5058231;28;20443;-64
2022/12/27 11:36:10;;;;;;;5.93;4.50;;;15.60;77.80;;;;;;5053207;28;20451;-63
2022/12/27 11:38:41;;;;;;;5.80;5.20;;;15.50;77.60;;;;;;5043555;28;20988;-65
2022/12/27 11:41:14;;;;;;;5.93;4.73;;;15.10;79.40;;;;;;5033373;28;20528;-64
2022/12/27 11:43:48;;;;;;;5.80;5.23;;;14.90;80.90;;;;;;5037790;28;20901;-65
2022/12/27 11:47:00;;;;;;;6.73;5.07;;;14.60;81.50;;;;;;5066034;28;20441;-64
2022/12/27 11:49:44;;;;;;;5.57;4.93;;;14.30;82.70;;;;;;5032230;28;20496;-65
2022/12/27 11:52:22;;;;;;;5.70;5.10;;;14.10;84.30;;;;;;5047603;28;20430;-63
2022/12/27 11:55:12;;;;;;;7.00;5.37;;;13.90;86.90;;;;;;5048069;28;20440;-64
2022/12/27 11:58:15;;;;;;;8.20;5.67;;;13.80;89.80;;;;;;5051191;28;20489;-64
2022/12/27 12:01:19;;;;;;;8.60;5.20;;;13.80;90.40;;;;;;5046355;28;20431;-64
2022/12/27 12:03:47;;;;;;;5.70;5.20;;;13.90;90.10;;;;;;5043055;28;20427;-66
2022/12/27 12:06:42;;;;;;;7.20;5.10;;;13.80;90.00;;;;;;5037406;28;20522;-66
2022/12/27 12:09:24;;;;;;;5.90;5.50;;;13.80;90.30;;;;;;5044330;28;20480;-65
2022/12/27 12:12:02;;;;;;;6.43;6.00;;;13.90;90.40;;;;;;5056719;28;20423;-64
2022/12/27 12:14:37;;;;;;;6.77;6.10;;;13.90;90.70;;;;;;5045432;28;20524;-67
2022/12/27 12:17:18;;;;;;;7.87;5.87;;;14.00;90.40;;;;;;5042955;28;20461;-63
2022/12/27 12:20:10;;;;;;;7.13;6.50;;;13.90;90.10;;;;;;5038212;28;21127;-64
2022/12/27 12:22:48;;;;;;;9.13;5.90;;;13.80;91.00;;;;;;5051527;28;20436;-65
2022/12/27 12:25:35;;;;;;;7.27;6.57;;;13.60;91.00;;;;;;5045019;28;20525;-68
2022/12/27 12:28:38;;;;;;;6.67;6.00;;;13.40;92.10;;;;;;5046994;28;20563;-65
2022/12/27 12:31:31;;;;;;;8.10;7.10;;;13.10;92.50;;;;;;5046327;28;20426;-65
2022/12/27 12:34:04;;;;;;;10.20;7.10;;;13.00;93.50;;;;;;5040155;28;20610;-65
2022/12/27 12:36:29;;;;;;;10.27;7.27;;;12.90;93.80;;;;;;5043177;28;20456;-63
2022/12/27 12:39:22;;;;;;;6.90;6.20;;;12.80;94.20;;;;;;5046197;28;20501;-64
2022/12/27 12:42:05;;;;;;;6.93;6.33;;;12.70;94.80;;;;;;5034658;28;20662;-65
2022/12/27 12:44:45;;;;;;;7.80;6.70;;;12.60;95.90;;;;;;5049764;28;20416;-64
2022/12/27 12:47:57;;;;;;;7.50;6.90;;;12.50;96.00;;;;;;5043158;28;20423;-67
2022/12/27 12:50:32;;;;;;;7.67;6.20;;;12.40;96.10;;;;;;5044967;28;20901;-69
2022/12/27 12:53:52;;;;;;;7.40;6.80;;;12.30;96.50;;;;;;5052782;28;20428;-64
2022/12/27 12:56:57;;;;;;;6.53;5.93;;;12.30;97.00;;;;;;5032891;28;20426;-69
2022/12/27 12:59:29;;;;;;;6.57;6.10;;;12.20;97.30;;;;;;5052328;28;20438;-69
2022/12/27 13:01:55;;;;;;;7.50;6.70;;;12.20;97.50;;;;;;5049893;28;20438;-64
2022/12/27 13:04:49;;;;;;;9.80;7.27;;;12.20;97.70;;;;;;5036435;28;20431;-69
2022/12/27 13:07:33;;;;;;;7.40;6.77;;;12.10;98.10;;;;;;5034790;28;20335;-63
2022/12/27 13:10:33;;;;;;;8.20;7.40;;;12.00;98.20;;;;;;5046379;28;20848;-65
2022/12/27 13:13:05;;;;;;;5.70;5.20;;;11.90;98.80;;;;;;5038934;28;20439;-63
2022/12/27 13:15:50;;;;;;;6.20;5.80;;;11.80;99.30;;;;;;5035198;28;20445;-65
2022/12/27 13:18:16;;;;;;;5.43;5.03;;;11.60;99.90;;;;;;5036626;28;20899;-65
2022/12/27 13:20:51;;;;;;;7.50;5.50;;;11.60;99.90;;;;;;5045092;28;20547;-64
2022/12/27 13:23:52;;;;;;;5.70;4.90;;;11.80;99.90;;;;;;5029963;28;20256;-64
2022/12/27 13:26:26;;;;;;;6.23;5.57;;;11.80;99.90;;;;;;5010152;28;20448;-63
2022/12/27 13:29:14;;;;;;;8.40;4.43;;;11.90;99.90;;;;;;5058243;28;20429;-68
2022/12/27 13:32:16;;;;;;;8.40;4.63;;;11.90;99.90;;;;;;5049019;28;20435;-63
2022/12/27 13:34:46;;;;;;;6.77;5.20;;;11.90;99.90;;;;;;5020365;28;20484;-65
2022/12/27 13:37:43;;;;;;;5.00;4.50;;;11.90;99.90;;;;;;5039996;28;20456;-64
2022/12/27 13:40:30;;;;;;;7.20;4.70;;;11.90;99.90;;;;;;5048840;28;20430;-64
2022/12/27 13:43:34;;;;;;;4.30;4.00;;;11.80;99.90;;;;;;5046425;28;20435;-68
2022/12/27 13:46:15;;;;;;;6.47;4.60;;;11.70;99.90;;;;;;5041309;28;20437;-64
2022/12/27 13:48:43;;;;;;;5.83;4.00;;;11.60;99.90;;;;;;5036913;28;20432;-67
2022/12/27 13:51:31;;;;;;;5.47;4.23;;;11.60;99.90;;;;;;5044118;28;20472;-65
2022/12/27 13:54:41;;;;;;;4.87;4.00;;;11.60;99.90;;;;;;5043777;28;20458;-65
2022/12/27 13:57:19;;;;;;;4.90;3.93;;;11.50;99.90;;;;;;5036184;28;20504;-64
2022/12/27 13:59:47;;;;;;;4.10;3.70;;;11.50;99.90;;;;;;5045587;28;20427;-69
2022/12/27 14:02:16;;;;;;;5.10;4.50;;;11.50;99.90;;;;;;5051849;28;20433;-63
2022/12/27 14:05:00;;;;;;;4.33;3.93;;;11.40;99.90;;;;;;5042562;28;20469;-64
2022/12/27 14:07:55;;;;;;;5.07;4.50;;;11.40;99.90;;;;;;5049608;28;20439;-69
2022/12/27 14:10:35;;;;;;;4.53;4.03;;;11.30;99.90;;;;;;5033506;28;20433;-69
2022/12/27 14:13:08;;;;;;;3.97;3.67;;;11.30;99.90;;;;;;5047000;28;20428;-65
2022/12/27 14:15:49;;;;;;;5.43;3.70;;;11.30;99.90;;;;;;5046325;28;20447;-64
2022/12/27 14:18:18;;;;;;;4.30;4.00;;;11.20;99.90;;;;;;5045886;28;20461;-67
2022/12/27 14:21:33;;;;;;;5.13;4.20;;;11.20;99.90;;;;;;5051003;28;20444;-63
2022/12/27 14:24:17;;;;;;;3.97;3.57;;;11.20;99.90;;;;;;5017385;28;20431;-65
2022/12/27 14:26:49;;;;;;;4.77;4.37;;;11.20;99.90;;;;;;5041038;28;20443;-65
2022/12/27 14:29:55;;;;;;;5.63;4.10;;;11.10;99.90;;;;;;5042717;28;20459;-64
2022/12/27 14:32:49;;;;;;;4.17;3.87;;;11.00;99.90;;;;;;5045014;28;20480;-64
2022/12/27 14:35:33;;;;;;;3.90;3.60;;;11.10;99.90;;;;;;5048672;28;20537;-64
2022/12/27 14:38:55;;;;;;;5.13;4.40;;;11.00;99.90;;;;;;5043801;28;20463;-64
2022/12/27 14:41:36;;;;;;;6.83;4.77;;;11.00;99.90;;;;;;5013987;28;20442;-64
2022/12/27 14:44:29;;;;;;;7.80;7.27;;;11.00;99.90;;;;;;5012211;28;20787;-66
2022/12/27 14:47:15;;;;;;;7.40;6.90;;;11.30;99.90;;;;;;5032102;28;20438;-67
2022/12/27 14:49:49;;;;;;;4.07;3.73;;;11.70;99.90;;;;;;5039026;28;20439;-65
2022/12/27 14:52:34;;;;;;;4.37;3.83;;;11.70;99.90;;;;;;5046512;28;20428;-65
2022/12/27 14:55:12;;;;;;;5.07;3.70;;;11.50;99.90;;;;;;5055824;28;20423;-63
2022/12/27 14:58:08;;;;;;;7.33;4.00;;;11.40;99.90;;;;;;5048015;28;20462;-64
2022/12/27 15:00:52;;;;;;;6.20;3.77;;;11.30;99.90;;;;;;5050572;28;20441;-64